Time;durP1;ratioP1;P1;durP2;ratioP2;P2;SDS_P1;SDS_P2;PMS_P1;PMS_P2;Temp;Humidity;BMP_temperature;BMP_pressure;BME280_temperature;BME280_humidity;BME280_pressure;Samples;Min_cycle;Max_cycle;Signal;HPM_P1;HPM_P2
2021/01/20 00:01:22;;;;;;;0.30;0.20;;;;;;;12.03;91.84;97828.75;4423311;32;20056;-75
2021/01/20 00:03:48;;;;;;;0.37;0.30;;;;;;;12.02;91.80;97832.88;4423373;32;20043;-76
2021/01/20 00:06:13;;;;;;;0.30;0.28;;;;;;;12.05;92.01;97811.34;4423803;32;20085;-76
2021/01/20 00:08:39;;;;;;;0.70;0.57;;;;;;;12.03;92.28;97813.94;4414879;32;20034;-77
2021/01/20 00:11:05;;;;;;;0.37;0.30;;;;;;;12.04;92.31;97802.12;4422927;32;20379;-76
2021/01/20 00:13:31;;;;;;;1.25;0.50;;;;;;;12.05;92.12;97803.66;4420946;32;20061;-76
2021/01/20 00:15:57;;;;;;;0.55;0.37;;;;;;;12.06;91.46;97798.78;4415075;32;20042;-76
2021/01/20 00:18:23;;;;;;;1.70;0.37;;;;;;;12.05;91.92;97791.59;4422041;32;20539;-76
2021/01/20 00:20:49;;;;;;;0.68;0.35;;;;;;;12.05;91.88;97775.47;4425474;32;20080;-76
2021/01/20 00:23:14;;;;;;;0.52;0.30;;;;;;;12.08;91.53;97773.66;4419081;32;20382;-77
2021/01/20 00:25:41;;;;;;;2.60;0.50;;;;;;;12.10;91.31;97768.28;4409151;32;20034;-77
2021/01/20 00:28:07;;;;;;;0.52;0.45;;;;;;;12.25;90.80;97788.44;4422403;32;20042;-77
2021/01/20 00:30:32;;;;;;;1.98;0.40;;;;;;;12.24;90.86;97769.97;4423723;32;20021;-76
2021/01/20 00:32:59;;;;;;;1.33;0.70;;;;;;;12.19;91.11;97781.28;4420132;32;20112;-76
2021/01/20 00:35:25;;;;;;;1.25;0.50;;;;;;;12.19;90.87;97775.66;4420763;32;20060;-76
2021/01/20 00:37:51;;;;;;;0.80;0.40;;;;;;;12.26;91.27;97769.47;4418878;32;20170;-76
2021/01/20 00:40:17;;;;;;;0.88;0.40;;;;;;;12.29;90.98;97759.97;4426176;32;20045;-76
2021/01/20 00:42:43;;;;;;;0.40;0.40;;;;;;;12.20;91.58;97746.19;4423727;32;20566;-76
2021/01/20 00:45:10;;;;;;;0.95;0.40;;;;;;;12.18;91.70;97763.59;4422805;32;20045;-76
2021/01/20 00:47:36;;;;;;;0.82;0.30;;;;;;;12.17;91.56;97744.41;4423323;32;20026;-76
2021/01/20 00:50:03;;;;;;;1.37;0.45;;;;;;;12.13;91.77;97748.25;4420891;32;20116;-77
2021/01/20 00:52:29;;;;;;;0.70;0.30;;;;;;;12.13;92.29;97734.16;4421863;32;20176;-76
2021/01/20 00:54:55;;;;;;;0.65;0.30;;;;;;;12.07;92.65;97736.28;4422304;32;20030;-76
2021/01/20 00:57:21;;;;;;;1.08;0.57;;;;;;;12.07;92.86;97735.50;4419798;32;20038;-77
2021/01/20 00:59:46;;;;;;;0.30;0.30;;;;;;;12.08;93.07;97734.97;4424719;32;20037;-77
2021/01/20 01:02:12;;;;;;;1.85;0.70;;;;;;;12.12;92.51;97731.88;4420124;32;20038;-76
2021/01/20 01:04:38;;;;;;;1.20;0.50;;;;;;;12.15;92.79;97713.91;4420939;32;21002;-77
2021/01/20 01:07:04;;;;;;;1.10;0.32;;;;;;;12.18;92.63;97729.03;4422208;32;20022;-76
2021/01/20 01:09:29;;;;;;;0.35;0.30;;;;;;;12.10;92.82;97704.19;4419394;32;20437;-76
2021/01/20 01:11:55;;;;;;;0.85;0.20;;;;;;;12.16;92.67;97717.50;4418879;32;20101;-77
2021/01/20 01:14:21;;;;;;;0.62;0.40;;;;;;;12.15;92.48;97719.56;4420386;32;20033;-77
2021/01/20 01:16:47;;;;;;;0.50;0.30;;;;;;;12.13;92.46;97727.00;4420105;32;20480;-77
2021/01/20 01:19:12;;;;;;;0.10;0.10;;;;;;;12.09;92.26;97739.31;4420366;32;20044;-77
2021/01/20 01:21:38;;;;;;;0.52;0.20;;;;;;;12.18;91.95;97723.41;4421184;32;20037;-76
2021/01/20 01:24:04;;;;;;;1.77;0.20;;;;;;;12.23;91.77;97717.72;4419109;32;20096;-77
2021/01/20 01:26:30;;;;;;;0.30;0.10;;;;;;;12.20;91.46;97715.16;4415669;32;20354;-77
2021/01/20 01:28:56;;;;;;;0.20;0.10;;;;;;;12.27;91.67;97728.72;4422820;32;20112;-78
2021/01/20 01:31:22;;;;;;;0.77;0.20;;;;;;;12.24;91.60;97724.88;4418834;32;20038;-77
2021/01/20 01:33:47;;;;;;;0.75;0.20;;;;;;;12.26;91.85;97727.94;4424785;32;20038;-77
2021/01/20 01:36:13;;;;;;;1.35;0.30;;;;;;;12.23;92.29;97731.81;4422417;32;20089;-76
2021/01/20 01:38:39;;;;;;;1.17;0.10;;;;;;;12.16;92.64;97735.19;4425538;32;20042;-76
2021/01/20 01:41:04;;;;;;;1.60;0.30;;;;;;;12.26;92.78;97725.13;4420518;32;20080;-76
2021/01/20 01:43:30;;;;;;;0.13;0.10;;;;;;;12.18;93.72;97743.88;4420106;32;20095;-75
2021/01/20 01:45:56;;;;;;;0.65;0.20;;;;;;;12.22;93.54;97755.66;4423864;32;20030;-75
2021/01/20 01:48:21;;;;;;;1.98;0.30;;;;;;;12.23;93.42;97747.94;4418975;32;20073;-76
2021/01/20 01:50:48;;;;;;;0.82;0.20;;;;;;;12.20;93.64;97746.94;4420676;32;20180;-77
2021/01/20 01:53:14;;;;;;;0.98;0.30;;;;;;;12.19;93.92;97741.84;4424819;32;20070;-77
2021/01/20 01:55:40;;;;;;;0.62;0.10;;;;;;;12.27;94.10;97737.94;4419286;32;20400;-77
2021/01/20 01:58:06;;;;;;;0.45;0.10;;;;;;;12.20;93.69;97732.84;4424625;32;20022;-76
2021/01/20 02:00:33;;;;;;;0.50;0.10;;;;;;;12.21;94.01;97742.09;4417241;32;20042;-77
2021/01/20 02:03:00;;;;;;;2.03;0.10;;;;;;;12.19;94.27;97739.00;4424699;32;20030;-77
2021/01/20 02:05:27;;;;;;;2.17;0.28;;;;;;;12.13;94.15;97722.87;4419928;32;20030;-77
2021/01/20 02:07:54;;;;;;;2.40;0.10;;;;;;;12.15;93.89;97715.97;4419981;32;20414;-77
2021/01/20 02:10:19;;;;;;;0.37;0.10;;;;;;;12.24;93.93;97710.03;4422445;32;20096;-77
2021/01/20 02:15:59;;;;;;;1.27;0.10;;;;;;;12.61;92.39;97722.31;3959227;32;15725603;-77
2021/01/20 02:18:27;;;;;;;0.15;0.03;;;;;;;12.61;92.39;97722.31;4436748;32;20201;-76
2021/01/20 02:21:33;;;;;;;1.00;0.10;;;;;;;12.25;94.03;97703.88;4439108;32;20033;-76
2021/01/20 02:24:01;;;;;;;1.67;0.20;;;;;;;12.30;93.41;97705.88;4440422;32;20051;-77
2021/01/20 02:29:21;;;;;;;0.15;0.03;;;;;;;12.80;91.90;97711.31;3985075;32;15023094;-76
2021/01/20 02:31:48;;;;;;;1.40;0.10;;;;;;;12.81;91.91;97715.47;4434435;32;20037;-77
2021/01/20 02:34:19;;;;;;;1.55;0.10;;;;;;;12.43;92.83;97697.59;4437133;32;20094;-78
2021/01/20 02:36:46;;;;;;;0.10;0.05;;;;;;;12.40;93.00;97695.81;4443435;32;20086;-77
2021/01/20 02:39:12;;;;;;;0.28;0.10;;;;;;;12.44;93.11;97687.84;4443133;32;20033;-78
2021/01/20 02:41:38;;;;;;;0.25;0.08;;;;;;;12.41;92.32;97696.56;4444668;32;20097;-78
2021/01/20 02:44:05;;;;;;;0.10;0.10;;;;;;;12.51;92.74;97675.97;4445212;32;20486;-78
2021/01/20 02:46:32;;;;;;;0.10;0.00;;;;;;;12.49;92.54;97678.56;4444898;32;20099;-77
2021/01/20 02:48:59;;;;;;;0.73;0.30;;;;;;;12.46;92.17;97679.62;4440592;32;20379;-77
2021/01/20 02:54:06;;;;;;;0.10;0.05;;;;;;;12.92;90.43;97670.97;3989261;32;15022927;-77
2021/01/20 02:56:33;;;;;;;0.10;0.10;;;;;;;12.92;90.43;97670.97;4444260;32;20063;-77
2021/01/20 02:59:01;;;;;;;0.30;0.10;;;;;;;12.52;91.01;97676.75;4446227;32;20140;-77
2021/01/20 03:01:31;;;;;;;0.40;0.15;;;;;;;12.53;91.82;97679.06;4444167;32;20037;-76
2021/01/20 03:04:00;;;;;;;0.00;0.00;;;;;;;12.44;92.27;97668.09;4443968;32;20081;-78
2021/01/20 03:06:27;;;;;;;0.30;0.10;;;;;;;12.46;91.51;97667.56;4444937;32;20022;-76
2021/01/20 03:08:54;;;;;;;1.15;0.05;;;;;;;12.46;91.92;97667.56;4443864;32;20061;-75
2021/01/20 03:11:20;;;;;;;0.65;0.10;;;;;;;12.47;91.57;97669.09;4444847;32;20034;-76
2021/01/20 03:13:47;;;;;;;0.08;0.00;;;;;;;12.48;91.76;97670.63;4442566;32;20438;-77
2021/01/20 03:16:12;;;;;;;0.30;0.00;;;;;;;12.43;91.73;97669.41;4445262;32;20067;-77
2021/01/20 03:18:38;;;;;;;0.28;0.10;;;;;;;12.37;92.28;97676.34;4431118;32;20416;-77
2021/01/20 03:21:05;;;;;;;0.00;0.00;;;;;;;12.39;92.79;97670.97;4440670;32;20472;-76
2021/01/20 03:23:31;;;;;;;2.12;0.20;;;;;;;12.42;93.08;97684.75;4436994;32;20057;-78
2021/01/20 03:25:56;;;;;;;0.88;0.20;;;;;;;12.42;93.34;97678.38;4440900;32;20446;-77
2021/01/20 03:28:23;;;;;;;1.37;0.20;;;;;;;12.40;93.20;97673.28;4441703;32;20045;-77
2021/01/20 03:30:50;;;;;;;0.98;0.28;;;;;;;12.49;93.08;97663.72;4440381;32;20084;-77
2021/01/20 03:33:16;;;;;;;2.50;0.20;;;;;;;12.47;92.88;97674.72;4435399;32;20070;-78
2021/01/20 03:35:41;;;;;;;0.75;0.10;;;;;;;12.44;93.09;97668.09;4423745;32;20428;-77
2021/01/20 03:38:08;;;;;;;1.00;0.17;;;;;;;12.40;93.16;97669.66;4429102;32;20017;-77
2021/01/20 03:40:34;;;;;;;0.35;0.10;;;;;;;12.46;93.28;97659.88;4427330;32;20029;-76
2021/01/20 03:43:00;;;;;;;1.60;0.10;;;;;;;12.49;92.98;97653.16;4423744;32;20385;-76
2021/01/20 03:45:26;;;;;;;2.42;0.20;;;;;;;12.50;92.90;97656.75;4423670;32;20017;-76
2021/01/20 03:47:51;;;;;;;0.37;0.10;;;;;;;12.48;92.06;97654.47;4424877;32;20061;-76
2021/01/20 03:50:17;;;;;;;0.10;0.03;;;;;;;12.40;91.46;97664.81;4424089;32;20069;-76
2021/01/20 03:52:43;;;;;;;0.85;0.20;;;;;;;12.38;91.23;97664.56;4427594;32;20079;-77
2021/01/20 03:55:09;;;;;;;1.33;0.10;;;;;;;12.32;91.23;97672.28;4426698;32;20520;-76
2021/01/20 03:57:34;;;;;;;0.32;0.10;;;;;;;12.31;91.47;97662.31;4429997;32;20441;-76
2021/01/20 04:00:00;;;;;;;0.88;0.17;;;;;;;12.26;91.48;97662.34;4424555;32;20056;-76
2021/01/20 04:02:26;;;;;;;1.35;0.10;;;;;;;12.25;91.94;97649.53;4427263;32;20044;-77
2021/01/20 04:04:52;;;;;;;1.83;0.32;;;;;;;12.21;92.23;97647.00;4418643;32;20085;-77
2021/01/20 04:07:17;;;;;;;0.50;0.20;;;;;;;12.23;91.56;97638.78;4417344;32;20398;-76
2021/01/20 04:09:43;;;;;;;1.75;0.22;;;;;;;12.22;91.76;97642.91;4418385;32;20071;-75
2021/01/20 04:12:09;;;;;;;0.55;0.10;;;;;;;12.21;91.37;97630.06;4412711;32;20034;-76
2021/01/20 04:14:35;;;;;;;0.65;0.10;;;;;;;12.21;91.81;97646.25;4412123;32;20048;-76
2021/01/20 04:17:00;;;;;;;0.10;0.00;;;;;;;12.24;91.74;97640.31;4416833;32;20027;-77
2021/01/20 04:19:26;;;;;;;1.85;0.10;;;;;;;12.28;91.76;97640.81;4417859;32;20062;-77
2021/01/20 04:21:52;;;;;;;1.65;0.00;;;;;;;12.25;91.40;97636.22;4417484;32;20061;-76
2021/01/20 04:24:17;;;;;;;0.00;0.00;;;;;;;12.28;91.58;97629.53;4417639;32;20038;-76
2021/01/20 04:26:44;;;;;;;1.25;0.08;;;;;;;12.22;91.70;97637.25;4413326;32;20484;-76
2021/01/20 04:29:11;;;;;;;0.20;0.10;;;;;;;12.25;92.05;97624.16;4416865;32;20053;-76
2021/01/20 04:31:38;;;;;;;0.30;0.00;;;;;;;12.27;91.89;97632.88;4417710;32;20018;-76
2021/01/20 04:34:04;;;;;;;0.00;0.00;;;;;;;12.19;91.37;97617.81;4415078;32;20093;-76
2021/01/20 04:36:30;;;;;;;0.68;0.10;;;;;;;12.27;91.79;97616.72;4417066;32;20457;-76
2021/01/20 04:38:55;;;;;;;1.58;0.10;;;;;;;12.22;91.51;97614.72;4416373;32;20092;-75
2021/01/20 04:41:21;;;;;;;0.82;0.05;;;;;;;12.21;91.42;97601.88;4413632;32;20064;-76
2021/01/20 04:43:47;;;;;;;0.25;0.10;;;;;;;12.22;91.10;97606.25;4416801;32;20100;-76
2021/01/20 04:46:13;;;;;;;0.25;0.08;;;;;;;12.23;91.29;97595.72;4413826;32;20050;-76
2021/01/20 04:48:39;;;;;;;0.50;0.30;;;;;;;12.10;91.38;97596.34;4418206;32;20081;-76
2021/01/20 04:51:07;;;;;;;0.10;0.10;;;;;;;12.14;91.34;97585.56;4417683;32;20091;-77
2021/01/20 04:53:33;;;;;;;0.08;0.03;;;;;;;12.13;91.35;97596.06;4413344;32;20076;-75
2021/01/20 04:56:05;;;;;;;0.37;0.05;;;;;;;12.04;92.00;97587.97;4411891;32;20083;-76
2021/01/20 04:58:31;;;;;;;0.57;0.10;;;;;;;12.01;92.41;97589.00;4414571;32;20046;-76
2021/01/20 05:00:58;;;;;;;0.20;0.10;;;;;;;11.99;92.61;97571.06;4414739;32;20034;-76
2021/01/20 05:03:24;;;;;;;0.73;0.20;;;;;;;12.03;93.03;97571.56;4417388;32;20033;-78
2021/01/20 05:05:52;;;;;;;0.62;0.17;;;;;;;12.05;92.37;97568.97;4416372;32;20026;-76
2021/01/20 05:08:17;;;;;;;0.30;0.10;;;;;;;12.04;91.99;97565.41;4415762;32;20042;-77
2021/01/20 05:10:43;;;;;;;0.85;0.20;;;;;;;12.08;91.59;97570.75;4412244;32;20119;-77
2021/01/20 05:13:27;;;;;;;0.88;0.10;;;;;;;12.08;92.21;97559.47;4416549;32;20102;-76
2021/01/20 05:15:54;;;;;;;0.35;0.20;;;;;;;12.13;92.07;97550.97;4415259;32;20073;-76
2021/01/20 05:18:20;;;;;;;0.20;0.20;;;;;;;12.05;92.51;97537.97;4411628;32;20060;-76
2021/01/20 05:20:47;;;;;;;0.75;0.20;;;;;;;12.05;92.15;97550.03;4417327;32;20066;-76
2021/01/20 05:23:13;;;;;;;0.28;0.25;;;;;;;12.01;92.49;97545.97;4411909;32;20511;-75
2021/01/20 05:25:42;;;;;;;1.05;0.30;;;;;;;12.01;91.97;97543.12;4412519;32;20737;-74
2021/01/20 05:31:01;;;;;;;0.40;0.30;;;;;;;12.11;91.60;97530.25;3987120;32;15105939;-76
2021/01/20 05:33:28;;;;;;;0.68;0.20;;;;;;;12.10;91.97;97534.34;4441558;32;20037;-77
2021/01/20 05:41:24;;;;;;;0.10;0.10;;;;;;;12.61;89.20;97526.94;4010681;31;15018329;-77
2021/01/20 05:43:52;;;;;;;0.32;0.13;;;;;;;12.61;89.20;97526.94;4461532;32;20071;-78
2021/01/20 05:46:35;;;;;;;0.45;0.20;;;;;;;12.23;90.91;97500.66;4462759;32;20085;-75
2021/01/20 05:49:03;;;;;;;0.88;0.25;;;;;;;12.27;90.70;97497.56;4459417;32;20483;-78
2021/01/20 05:51:44;;;;;;;0.57;0.10;;;;;;;12.29;90.05;97509.81;4464197;32;20063;-78
2021/01/20 05:54:10;;;;;;;0.25;0.10;;;;;;;12.31;89.51;97495.19;4460682;32;20029;-77
2021/01/20 05:56:36;;;;;;;0.30;0.10;;;;;;;12.29;89.73;97490.09;4447075;32;20120;-78
2021/01/20 05:59:09;;;;;;;2.00;0.10;;;;;;;12.27;89.36;97486.28;4460899;32;20040;-79
2021/01/20 06:01:37;;;;;;;0.20;0.20;;;;;;;12.27;89.23;97489.84;4458746;32;20084;-78
2021/01/20 06:04:04;;;;;;;0.10;0.10;;;;;;;12.32;89.17;97502.34;4444939;32;20067;-77
2021/01/20 06:06:31;;;;;;;0.55;0.20;;;;;;;12.26;88.93;97508.06;4461584;32;20049;-76
2021/01/20 06:08:57;;;;;;;2.65;0.70;;;;;;;12.31;89.15;97489.56;4461501;32;20077;-76
2021/01/20 06:11:23;;;;;;;0.73;0.50;;;;;;;12.33;89.17;97495.44;4460822;32;20060;-76
2021/01/20 06:13:49;;;;;;;1.27;1.15;;;;;;;12.35;88.97;97493.63;4460731;32;20045;-78
2021/01/20 06:21:28;;;;;;;1.00;0.70;;;;;;;12.86;87.07;97503.78;3985990;32;15025857;-76
2021/01/20 06:24:00;;;;;;;1.52;1.42;;;;;;;12.86;87.07;97503.78;4435710;32;20080;-77
2021/01/20 06:26:26;;;;;;;0.88;0.60;;;;;;;12.56;88.12;97486.22;4442124;32;20150;-78
2021/01/20 06:28:58;;;;;;;1.50;0.50;;;;;;;12.51;87.95;97497.53;4436780;32;20022;-75
2021/01/20 06:31:28;;;;;;;0.90;0.70;;;;;;;12.47;88.21;97486.56;4443489;32;20021;-78
2021/01/20 06:33:54;;;;;;;0.73;0.20;;;;;;;12.53;88.67;97461.91;4434618;32;20037;-78
2021/01/20 06:36:36;;;;;;;0.50;0.30;;;;;;;12.47;88.83;97502.72;4437467;32;20094;-77
2021/01/20 06:42:32;;;;;;;1.23;0.40;;;;;;;12.87;87.98;97496.88;3997941;31;15013779;-77
2021/01/20 06:45:22;;;;;;;0.60;0.20;;;;;;;12.87;87.98;97496.88;4456580;32;20116;-76
2021/01/20 06:48:07;;;;;;;0.62;0.40;;;;;;;12.55;89.35;97498.78;4457263;32;20037;-76
2021/01/20 06:51:13;;;;;;;1.05;0.20;;;;;;;12.51;89.27;97489.84;4449830;32;20541;-75
2021/01/20 06:59:31;;;;;;;0.70;0.40;;;;;;;12.96;89.20;97496.50;3979334;32;15023598;-76
2021/01/20 07:07:34;;;;;;;1.52;0.68;;;;;;;12.93;89.99;97483.44;3984387;32;15023363;-75
2021/01/20 07:12:35;;;;;;;2.47;0.90;;;;;;;12.64;91.27;97475.84;3989242;31;15706985;-76
2021/01/20 07:15:04;;;;;;;1.25;0.60;;;;;;;12.52;91.48;97471.63;4468611;32;20033;-76
2021/01/20 07:17:34;;;;;;;6.45;0.75;;;;;;;12.54;91.46;97479.56;4449184;32;20102;-76
2021/01/20 07:19:59;;;;;;;1.45;1.05;;;;;;;12.48;91.62;97471.16;4465604;32;20090;-75
2021/01/20 07:22:28;;;;;;;1.45;1.00;;;;;;;12.51;91.10;97461.66;4469333;32;20383;-75
2021/01/20 07:24:55;;;;;;;0.98;0.88;;;;;;;12.49;91.46;97478.31;4468450;32;20179;-77
2021/01/20 07:27:21;;;;;;;1.65;0.70;;;;;;;12.48;91.62;97476.81;4472833;32;20111;-76
2021/01/20 07:29:47;;;;;;;4.25;0.60;;;;;;;12.48;91.26;97459.88;4465243;32;20428;-76
2021/01/20 07:32:13;;;;;;;3.10;0.80;;;;;;;12.42;91.39;97470.47;4467169;32;20100;-77
2021/01/20 07:34:41;;;;;;;1.50;0.80;;;;;;;12.44;91.28;97461.47;4460044;32;20416;-76
2021/01/20 07:39:44;;;;;;;2.25;0.95;;;;;;;12.55;91.72;97461.38;3962488;32;15726629;-77
2021/01/20 07:42:10;;;;;;;5.20;1.10;;;;;;;12.46;92.00;97462.50;4436991;32;20118;-75
2021/01/20 07:44:46;;;;;;;1.87;0.88;;;;;;;12.47;91.86;97449.13;4437190;32;20572;-76
2021/01/20 07:47:14;;;;;;;2.85;0.80;;;;;;;12.52;91.82;97446.25;4442300;32;20165;-76
2021/01/20 07:49:53;;;;;;;0.70;0.60;;;;;;;12.46;91.47;97447.63;4434603;32;20030;-76
2021/01/20 07:52:19;;;;;;;0.70;0.50;;;;;;;12.54;91.58;97454.94;4434513;32;20025;-75
2021/01/20 07:54:46;;;;;;;2.25;0.70;;;;;;;12.50;91.26;97460.12;4440218;32;20409;-76
2021/01/20 07:57:16;;;;;;;3.35;0.65;;;;;;;12.54;91.22;97452.12;4435429;32;20056;-76
2021/01/20 07:59:43;;;;;;;1.70;0.60;;;;;;;12.57;90.91;97445.44;4438804;32;20408;-76
2021/01/20 08:02:11;;;;;;;2.47;0.40;;;;;;;12.51;90.54;97461.66;4435899;32;20083;-76
2021/01/20 08:04:38;;;;;;;1.02;0.55;;;;;;;12.51;90.55;97460.88;4387643;32;20089;-77
2021/01/20 08:07:05;;;;;;;2.67;0.50;;;;;;;12.46;90.88;97454.03;4379965;32;20123;-78
2021/01/20 08:09:35;;;;;;;1.45;0.40;;;;;;;12.53;90.88;97456.25;4422070;32;20077;-77
2021/01/20 08:12:04;;;;;;;2.28;0.30;;;;;;;12.54;90.65;97449.31;4400098;32;20037;-77
2021/01/20 08:14:30;;;;;;;2.15;0.80;;;;;;;12.60;90.18;97447.19;4424810;32;20038;-77
2021/01/20 08:16:56;;;;;;;1.00;0.45;;;;;;;12.55;90.12;97447.25;4421666;32;20125;-77
2021/01/20 08:19:22;;;;;;;0.73;0.50;;;;;;;12.50;90.01;97457.31;4431518;32;20069;-77
2021/01/20 08:21:48;;;;;;;0.85;0.30;;;;;;;12.52;89.94;97460.34;4420466;32;20064;-76
2021/01/20 08:24:23;;;;;;;1.40;0.45;;;;;;;12.48;89.58;97459.88;4413260;32;20247;-77
2021/01/20 08:26:57;;;;;;;0.40;0.10;;;;;;;12.49;90.00;97455.03;4434535;32;20031;-78
2021/01/20 08:29:23;;;;;;;2.30;0.40;;;;;;;12.46;89.45;97459.69;4422571;32;20017;-78
2021/01/20 08:32:10;;;;;;;1.62;0.30;;;;;;;12.44;89.54;97436.88;4434464;32;20065;-78
2021/01/20 08:34:39;;;;;;;2.03;0.60;;;;;;;12.46;89.68;97431.47;4413232;32;20064;-78
2021/01/20 08:37:07;;;;;;;2.92;0.60;;;;;;;12.49;89.89;97424.00;4408448;32;20078;-79
2021/01/20 08:39:36;;;;;;;0.43;0.30;;;;;;;12.49;89.56;97433.22;4409703;32;20033;-78
2021/01/20 08:42:32;;;;;;;1.10;0.30;;;;;;;12.50;89.46;97428.34;4411208;32;20068;-78
2021/01/20 08:55:52;;;;;;;1.35;0.50;;;;;;;12.94;88.65;97434.16;3968545;32;15111265;-77
2021/01/20 09:01:06;;;;;;;1.45;0.70;;;;;;;13.02;89.51;97418.19;3980388;32;15022333;-79
2021/01/20 09:06:16;;;;;;;0.90;0.55;;;;;;;12.70;90.58;97414.50;3960596;32;15024150;-79
2021/01/20 09:08:42;;;;;;;1.57;0.90;;;;;;;12.61;90.58;97417.69;4425533;32;20073;-79
2021/01/20 09:11:08;;;;;;;1.85;1.05;;;;;;;12.69;90.38;97415.03;4436072;32;20152;-75
2021/01/20 09:13:34;;;;;;;1.95;0.90;;;;;;;12.65;90.33;97411.75;4424280;32;20524;-80
2021/01/20 09:16:00;;;;;;;0.60;0.40;;;;;;;12.67;90.32;97412.72;4431224;32;20230;-78
2021/01/20 09:18:26;;;;;;;1.95;0.50;;;;;;;12.61;90.38;97409.22;4437347;32;20389;-78
2021/01/20 09:20:53;;;;;;;2.87;0.70;;;;;;;12.62;91.20;97402.31;4420605;32;20085;-80
2021/01/20 09:23:21;;;;;;;4.25;1.02;;;;;;;12.65;91.65;97397.66;4434474;32;20041;-75
2021/01/20 09:25:47;;;;;;;4.03;0.98;;;;;;;12.66;92.07;97399.94;4438704;32;20060;-76
2021/01/20 09:28:14;;;;;;;2.35;1.45;;;;;;;12.72;92.13;97397.03;4436077;32;20112;-78
2021/01/20 09:30:40;;;;;;;3.03;1.35;;;;;;;12.77;92.11;97399.78;4443061;32;20361;-78
2021/01/20 09:33:06;;;;;;;3.33;1.25;;;;;;;12.90;92.31;97393.44;4442975;32;20048;-79
2021/01/20 09:35:32;;;;;;;2.78;0.88;;;;;;;12.92;91.48;97385.97;4433936;32;20080;-79
2021/01/20 09:37:59;;;;;;;2.45;0.90;;;;;;;12.87;91.61;97386.81;4436570;32;20077;-77
2021/01/20 09:40:26;;;;;;;2.22;0.70;;;;;;;12.88;91.94;97373.47;4433223;32;20081;-77
2021/01/20 09:42:53;;;;;;;2.10;0.80;;;;;;;12.95;92.08;97379.25;4439049;32;20458;-82
2021/01/20 09:45:22;;;;;;;1.20;0.50;;;;;;;12.97;91.44;97367.44;4433990;32;20064;-78
2021/01/20 09:47:48;;;;;;;2.97;1.02;;;;;;;13.00;90.74;97372.03;4433757;32;20038;-76
2021/01/20 09:50:16;;;;;;;2.00;1.20;;;;;;;13.05;90.30;97368.38;4435953;32;20374;-77
2021/01/20 09:52:57;;;;;;;3.78;0.60;;;;;;;13.03;90.19;97362.50;4434055;32;20034;-78
2021/01/20 09:55:23;;;;;;;1.83;1.20;;;;;;;12.85;89.58;97360.41;4435783;32;20045;-77
2021/01/20 09:57:49;;;;;;;1.58;0.75;;;;;;;12.83;90.49;97363.81;4441746;32;20068;-79
2021/01/20 10:00:16;;;;;;;1.23;0.70;;;;;;;12.75;90.84;97362.88;4434630;32;20048;-78
2021/01/20 10:02:42;;;;;;;0.90;0.43;;;;;;;12.72;90.65;97360.34;4440813;32;20060;-76
2021/01/20 10:05:10;;;;;;;1.17;0.60;;;;;;;12.57;90.67;97349.53;4429838;32;20041;-76
2021/01/20 10:07:37;;;;;;;2.15;1.00;;;;;;;12.65;91.64;97352.50;4432936;32;20057;-79
2021/01/20 10:10:06;;;;;;;3.08;0.80;;;;;;;12.65;91.47;97353.28;4434385;32;20459;-74
2021/01/20 10:12:31;;;;;;;2.33;1.17;;;;;;;12.69;92.11;97339.63;4432578;32;20099;-75
2021/01/20 10:14:57;;;;;;;1.83;0.90;;;;;;;12.74;91.08;97332.38;4434839;32;20488;-76
2021/01/20 10:17:23;;;;;;;2.37;0.85;;;;;;;12.76;91.04;97330.53;4425030;32;20083;-77
2021/01/20 10:19:48;;;;;;;1.33;0.90;;;;;;;12.71;91.86;97333.44;4421976;32;20439;-79
2021/01/20 10:22:14;;;;;;;1.90;1.00;;;;;;;12.72;90.58;97326.50;4424770;32;20041;-74
2021/01/20 10:24:40;;;;;;;3.45;0.85;;;;;;;12.89;90.34;97310.84;4421563;32;20052;-74
2021/01/20 10:27:06;;;;;;;3.35;0.88;;;;;;;12.83;89.97;97306.59;4423540;32;20443;-79
2021/01/20 10:29:31;;;;;;;6.37;1.05;;;;;;;12.87;90.65;97312.69;4426977;32;20073;-74
2021/01/20 10:31:57;;;;;;;4.70;0.75;;;;;;;12.97;90.29;97308.94;4422725;32;20038;-78
2021/01/20 10:34:23;;;;;;;1.80;1.00;;;;;;;13.02;90.41;97305.31;4428561;32;20026;-78
2021/01/20 10:36:48;;;;;;;1.52;0.85;;;;;;;13.01;88.66;97295.28;4425076;32;20121;-78
2021/01/20 10:39:14;;;;;;;1.62;0.88;;;;;;;13.03;89.26;97297.56;4424376;32;20781;-80
2021/01/20 10:41:40;;;;;;;2.35;0.68;;;;;;;12.89;89.27;97296.75;4421154;32;20033;-78
2021/01/20 10:44:06;;;;;;;1.77;0.82;;;;;;;12.97;89.21;97291.22;4424601;32;20073;-79
2021/01/20 10:46:34;;;;;;;3.25;1.10;;;;;;;13.01;89.55;97281.19;4423875;32;20089;-80
2021/01/20 10:49:01;;;;;;;2.22;0.90;;;;;;;13.03;88.89;97275.78;4418407;32;20669;-77
2021/01/20 10:51:29;;;;;;;2.90;0.80;;;;;;;13.01;88.01;97260.69;4416667;32;20025;-77
2021/01/20 10:53:54;;;;;;;3.37;2.20;;;;;;;13.09;88.57;97273.63;4418777;32;20064;-78
2021/01/20 10:56:20;;;;;;;3.05;1.00;;;;;;;13.01;88.98;97267.06;4426764;32;20453;-77
2021/01/20 10:58:46;;;;;;;1.33;0.90;;;;;;;13.03;88.38;97260.88;4423405;32;20026;-76
2021/01/20 11:01:12;;;;;;;1.50;0.80;;;;;;;13.10;88.19;97257.44;4421551;32;20773;-78
2021/01/20 11:03:39;;;;;;;3.33;1.10;;;;;;;13.05;87.78;97252.66;4423342;32;20093;-76
2021/01/20 11:06:07;;;;;;;2.12;0.90;;;;;;;13.13;88.37;97262.03;4424320;32;20045;-79
2021/01/20 11:08:33;;;;;;;2.05;1.00;;;;;;;13.17;88.14;97246.28;4429293;32;20154;-78
2021/01/20 11:10:59;;;;;;;2.70;0.82;;;;;;;13.10;88.04;97249.00;4419826;32;20102;-76
2021/01/20 11:13:24;;;;;;;1.05;0.60;;;;;;;13.08;87.89;97249.53;4422543;32;20974;-79
2021/01/20 11:15:50;;;;;;;2.83;0.75;;;;;;;13.12;87.89;97232.25;4425785;32;20100;-80
2021/01/20 11:18:18;;;;;;;1.73;1.00;;;;;;;12.96;87.98;97234.06;4420170;32;20145;-76
2021/01/20 11:20:46;;;;;;;2.15;1.10;;;;;;;12.82;88.39;97214.81;4419374;32;20042;-76
2021/01/20 11:23:12;;;;;;;2.08;1.00;;;;;;;12.83;89.40;97208.62;4422430;32;20478;-78
2021/01/20 11:25:43;;;;;;;5.85;1.10;;;;;;;12.83;89.60;97200.16;4423354;32;20085;-77
2021/01/20 11:28:10;;;;;;;1.62;0.88;;;;;;;12.86;89.93;97199.06;4419568;32;20050;-77
2021/01/20 11:30:35;;;;;;;5.32;1.70;;;;;;;12.76;89.85;97192.31;4420098;32;20046;-78
2021/01/20 11:33:01;;;;;;;1.62;0.70;;;;;;;12.81;90.45;97191.47;4418974;32;20501;-79
2021/01/20 11:35:27;;;;;;;2.40;1.17;;;;;;;12.71;90.09;97186.78;4420817;32;20069;-79
2021/01/20 11:37:56;;;;;;;3.55;0.77;;;;;;;12.66;90.21;97184.78;4422359;32;20038;-76
2021/01/20 11:40:23;;;;;;;1.95;0.95;;;;;;;12.65;90.17;97189.69;4418035;32;20424;-76
2021/01/20 11:42:56;;;;;;;3.25;1.00;;;;;;;12.72;90.33;97172.13;4421486;32;20026;-80
2021/01/20 11:45:25;;;;;;;1.70;1.23;;;;;;;12.70;90.14;97188.81;4419124;32;20709;-79
2021/01/20 11:47:51;;;;;;;2.90;1.10;;;;;;;12.79;90.15;97163.03;4420703;32;20109;-80
2021/01/20 11:50:16;;;;;;;1.55;0.80;;;;;;;12.77;90.88;97160.00;4418988;32;20715;-77
2021/01/20 11:52:42;;;;;;;3.58;1.25;;;;;;;12.86;89.92;97158.81;4418662;32;20081;-79
2021/01/20 11:55:08;;;;;;;1.95;1.05;;;;;;;12.97;90.49;97147.31;4424233;32;20072;-78
2021/01/20 11:57:34;;;;;;;5.20;0.98;;;;;;;12.96;89.80;97143.75;4423072;32;20018;-77
2021/01/20 11:59:59;;;;;;;3.47;0.98;;;;;;;13.01;89.06;97148.53;4422717;32;20021;-77
2021/01/20 12:02:25;;;;;;;2.83;1.10;;;;;;;13.04;89.11;97136.16;4420773;32;20065;-75
2021/01/20 12:04:51;;;;;;;2.00;1.08;;;;;;;13.05;88.66;97134.87;4427963;32;20038;-80
2021/01/20 12:07:16;;;;;;;1.85;1.10;;;;;;;12.96;88.52;97149.41;4424309;32;20041;-78
2021/01/20 12:09:42;;;;;;;1.33;0.93;;;;;;;12.91;89.43;97126.91;4423419;32;20073;-77
2021/01/20 12:12:08;;;;;;;3.28;1.90;;;;;;;12.83;89.55;97129.63;4419904;32;20077;-79
2021/01/20 12:14:37;;;;;;;1.50;1.10;;;;;;;12.86;89.76;97131.34;4421516;32;20038;-77
2021/01/20 12:17:04;;;;;;;2.75;1.20;;;;;;;12.78;90.16;97113.56;4417341;32;20030;-76
2021/01/20 12:19:29;;;;;;;2.90;1.65;;;;;;;12.77;90.30;97128.97;4421601;32;20430;-78
2021/01/20 12:21:55;;;;;;;2.60;1.25;;;;;;;12.70;90.89;97121.13;4428854;32;20089;-80
2021/01/20 12:24:21;;;;;;;2.67;1.50;;;;;;;12.68;90.60;97115.28;4421294;32;20053;-77
2021/01/20 12:26:47;;;;;;;4.37;1.30;;;;;;;12.64;90.73;97103.53;4425922;32;20494;-76
2021/01/20 12:29:12;;;;;;;3.75;1.52;;;;;;;12.70;90.90;97101.38;4420805;32;20037;-77
2021/01/20 12:31:38;;;;;;;4.07;1.67;;;;;;;12.65;90.48;97096.63;4421788;32;20037;-77